Time;durP1;ratioP1;P1;durP2;ratioP2;P2;SDS_P1;SDS_P2;PMS_P1;PMS_P2;Temp;Humidity;BMP_temperature;BMP_pressure;BME280_temperature;BME280_humidity;BME280_pressure;Samples;Min_cycle;Max_cycle;Signal;HPM_P1;HPM_P2
2024/02/16 00:02:43;;;;;;;8.18;4.63;;;12.60;99.90;;;;;;5089141;28;20036;-65
2024/02/16 00:05:29;;;;;;;7.30;5.70;;;12.60;99.90;;;;;;5098491;28;20052;-65
2024/02/16 00:08:15;;;;;;;9.30;5.38;;;12.50;99.90;;;;;;5091619;28;20044;-65
2024/02/16 00:11:00;;;;;;;9.27;5.45;;;12.50;99.90;;;;;;5099990;28;20039;-65
2024/02/16 00:13:46;;;;;;;8.27;5.88;;;12.50;99.90;;;;;;5095046;28;20090;-67
2024/02/16 00:16:32;;;;;;;7.38;5.85;;;12.40;99.90;;;;;;5097950;28;20044;-66
2024/02/16 00:19:18;;;;;;;7.05;5.68;;;12.40;99.90;;;;;;5094870;28;20486;-66
2024/02/16 00:22:07;;;;;;;9.77;6.68;;;12.40;99.90;;;;;;5094911;28;20043;-67
2024/02/16 00:24:53;;;;;;;10.98;6.97;;;12.40;99.90;;;;;;5093848;28;20123;-67
2024/02/16 00:27:39;;;;;;;11.32;7.00;;;12.40;99.90;;;;;;5090498;28;20036;-66
2024/02/16 00:30:25;;;;;;;8.68;6.47;;;12.30;99.90;;;;;;5088607;28;20055;-66
2024/02/16 00:33:11;;;;;;;9.32;6.80;;;12.30;99.90;;;;;;5101115;28;20122;-66
2024/02/16 00:35:57;;;;;;;10.45;7.47;;;12.30;99.90;;;;;;5093484;28;20119;-66
2024/02/16 00:38:43;;;;;;;10.85;7.07;;;12.30;99.90;;;;;;5101631;28;20046;-65
2024/02/16 00:41:29;;;;;;;11.05;7.53;;;12.20;99.90;;;;;;5098368;28;20035;-66
2024/02/16 00:44:15;;;;;;;11.45;7.32;;;12.20;99.90;;;;;;5105912;28;20040;-65
2024/02/16 00:47:01;;;;;;;9.38;6.72;;;12.20;99.90;;;;;;5106744;28;20070;-65
2024/02/16 00:49:47;;;;;;;8.73;6.97;;;12.20;99.90;;;;;;5086476;28;20038;-65
2024/02/16 00:52:33;;;;;;;12.13;6.78;;;12.20;99.90;;;;;;5100652;28;20051;-66
2024/02/16 00:55:19;;;;;;;11.23;7.43;;;12.20;99.90;;;;;;5093967;28;20040;-66
2024/02/16 00:58:05;;;;;;;9.55;7.18;;;12.10;99.90;;;;;;5095559;28;20040;-66
2024/02/16 01:00:50;;;;;;;10.02;7.82;;;12.10;99.90;;;;;;5105802;28;20032;-66
2024/02/16 01:03:40;;;;;;;10.85;8.02;;;12.10;99.90;;;;;;5100309;28;20051;-66
2024/02/16 01:06:26;;;;;;;12.35;8.00;;;12.10;99.90;;;;;;5100236;28;20038;-65
2024/02/16 01:09:12;;;;;;;11.07;8.23;;;12.10;99.90;;;;;;5084611;28;20039;-66
2024/02/16 01:11:58;;;;;;;11.27;7.18;;;12.10;99.90;;;;;;5097601;28;20543;-65
2024/02/16 01:14:44;;;;;;;12.20;9.02;;;12.10;99.90;;;;;;5105579;28;20044;-66
2024/02/16 01:17:32;;;;;;;14.70;9.20;;;12.10;99.90;;;;;;5096327;28;20040;-65
2024/02/16 01:20:19;;;;;;;10.23;7.93;;;12.10;99.90;;;;;;5097872;28;20093;-65
2024/02/16 01:23:06;;;;;;;11.15;8.32;;;12.10;99.90;;;;;;5100050;28;20048;-66
2024/02/16 01:25:52;;;;;;;11.25;8.25;;;12.00;99.90;;;;;;5098914;28;20051;-65
2024/02/16 01:28:38;;;;;;;12.45;8.65;;;12.00;99.90;;;;;;5092667;28;20446;-65
2024/02/16 01:31:23;;;;;;;11.85;9.32;;;12.00;99.90;;;;;;5097384;28;20075;-65
2024/02/16 01:34:09;;;;;;;13.40;8.68;;;12.00;99.90;;;;;;5100635;28;20518;-66
2024/02/16 01:36:56;;;;;;;12.23;8.93;;;12.00;99.90;;;;;;5097181;28;20043;-66
2024/02/16 01:39:42;;;;;;;13.93;9.63;;;11.90;99.90;;;;;;5093472;28;20042;-66
2024/02/16 01:42:28;;;;;;;14.50;10.02;;;11.90;99.90;;;;;;5105798;28;20042;-66
2024/02/16 01:45:15;;;;;;;12.60;8.98;;;11.90;99.90;;;;;;5093699;28;20036;-66
2024/02/16 01:48:01;;;;;;;13.13;9.48;;;11.90;99.90;;;;;;5103260;28;20097;-66
2024/02/16 01:50:49;;;;;;;12.68;9.63;;;11.80;99.90;;;;;;5104585;28;20067;-66
2024/02/16 01:53:36;;;;;;;13.52;10.38;;;11.80;99.90;;;;;;5101435;28;20560;-66
2024/02/16 01:56:23;;;;;;;13.70;10.02;;;11.80;99.90;;;;;;5096121;28;20372;-66
2024/02/16 01:59:09;;;;;;;16.90;11.02;;;11.80;99.90;;;;;;5103213;28;20092;-66
2024/02/16 02:01:55;;;;;;;14.40;10.65;;;11.80;99.90;;;;;;5100416;28;20419;-66
2024/02/16 02:04:41;;;;;;;15.52;10.63;;;11.80;99.90;;;;;;5093349;28;20047;-66
2024/02/16 02:07:28;;;;;;;15.60;11.40;;;11.70;99.90;;;;;;5092051;28;20044;-66
2024/02/16 02:10:14;;;;;;;16.60;11.95;;;11.70;99.90;;;;;;5093992;28;20104;-67
2024/02/16 02:13:00;;;;;;;15.32;11.95;;;11.70;99.90;;;;;;5095548;28;20081;-67
2024/02/16 02:15:46;;;;;;;15.90;12.40;;;11.70;99.90;;;;;;5105340;28;20407;-66
2024/02/16 02:18:32;;;;;;;15.13;11.73;;;11.70;99.90;;;;;;5091824;28;20488;-67
2024/02/16 02:21:18;;;;;;;18.10;13.07;;;11.70;99.90;;;;;;5101210;28;20039;-67
2024/02/16 02:24:05;;;;;;;16.10;11.52;;;11.60;99.90;;;;;;5104241;28;20036;-66
2024/02/16 02:26:51;;;;;;;20.17;13.63;;;11.60;99.90;;;;;;5095314;28;20514;-66
2024/02/16 02:29:37;;;;;;;19.73;13.48;;;11.60;99.90;;;;;;5101687;28;20032;-66
2024/02/16 02:32:23;;;;;;;15.90;13.27;;;11.50;99.90;;;;;;5095891;28;20079;-67
2024/02/16 02:35:09;;;;;;;16.85;12.55;;;11.50;99.90;;;;;;5098355;28;20044;-67
2024/02/16 02:37:55;;;;;;;17.27;13.32;;;11.50;99.90;;;;;;5105896;28;20063;-67
2024/02/16 02:40:41;;;;;;;17.98;12.35;;;11.50;99.90;;;;;;5100734;28;20592;-67
2024/02/16 02:43:27;;;;;;;21.85;15.15;;;11.50;99.90;;;;;;5102881;28;20042;-67
2024/02/16 02:46:16;;;;;;;20.08;14.80;;;11.40;99.90;;;;;;5090939;28;20036;-67
2024/02/16 02:49:03;;;;;;;20.20;14.48;;;11.40;99.90;;;;;;5099152;28;20043;-67
2024/02/16 02:51:49;;;;;;;17.13;13.23;;;11.40;99.90;;;;;;5099030;28;20039;-67
2024/02/16 02:54:35;;;;;;;18.77;13.23;;;11.40;99.90;;;;;;5098535;28;20047;-67
2024/02/16 02:57:21;;;;;;;22.13;14.50;;;11.40;99.90;;;;;;5095469;28;20077;-67
2024/02/16 03:00:10;;;;;;;19.83;13.88;;;11.40;99.90;;;;;;5097178;28;20040;-67
2024/02/16 03:02:56;;;;;;;17.90;13.68;;;11.30;99.90;;;;;;5090876;28;20093;-67
2024/02/16 03:05:43;;;;;;;17.42;12.98;;;11.40;99.90;;;;;;5092794;28;20044;-67
2024/02/16 03:08:28;;;;;;;20.23;14.00;;;11.40;99.90;;;;;;5092368;28;20036;-66
2024/02/16 03:11:14;;;;;;;18.35;13.38;;;11.40;99.90;;;;;;5104101;28;20047;-67
2024/02/16 03:14:00;;;;;;;19.65;13.40;;;11.40;99.90;;;;;;5098672;28;20130;-67
2024/02/16 03:16:46;;;;;;;17.27;13.45;;;11.30;99.90;;;;;;5095415;28;20480;-69
2024/02/16 03:19:32;;;;;;;18.20;12.82;;;11.30;99.90;;;;;;5093056;28;20119;-68
2024/02/16 03:22:18;;;;;;;18.45;13.82;;;11.40;99.90;;;;;;5095946;28;20043;-68
2024/02/16 03:25:05;;;;;;;16.70;12.05;;;11.40;99.90;;;;;;5087205;28;20040;-68
2024/02/16 03:27:50;;;;;;;18.63;14.38;;;11.40;99.90;;;;;;5098116;28;20096;-68
2024/02/16 03:30:36;;;;;;;19.88;12.93;;;11.40;99.90;;;;;;5101016;28;20043;-68
2024/02/16 03:33:23;;;;;;;17.67;13.07;;;11.40;99.90;;;;;;5099155;28;20052;-68
2024/02/16 03:36:09;;;;;;;17.60;13.07;;;11.40;99.90;;;;;;5098422;28;20095;-68
2024/02/16 03:38:56;;;;;;;17.92;13.20;;;11.40;99.90;;;;;;5098120;28;20039;-68
2024/02/16 03:41:42;;;;;;;16.48;12.68;;;11.40;99.90;;;;;;5100078;28;20092;-68
2024/02/16 03:44:27;;;;;;;17.38;13.02;;;11.40;99.90;;;;;;5101857;28;20044;-68
2024/02/16 03:47:13;;;;;;;17.23;13.23;;;11.30;99.90;;;;;;5090782;28;20036;-68
2024/02/16 03:49:59;;;;;;;17.75;12.88;;;11.40;99.90;;;;;;5098404;28;20043;-68
2024/02/16 03:52:45;;;;;;;16.45;12.95;;;11.30;99.90;;;;;;5099401;28;20058;-68
2024/02/16 03:55:36;;;;;;;16.90;12.10;;;11.30;99.90;;;;;;5105736;28;20040;-68
2024/02/16 03:58:22;;;;;;;19.30;13.35;;;11.30;99.90;;;;;;5101079;28;20097;-68
2024/02/16 04:01:08;;;;;;;15.20;12.23;;;11.30;99.90;;;;;;5104645;28;20051;-68
2024/02/16 04:03:54;;;;;;;16.30;12.23;;;11.30;99.90;;;;;;5105852;28;20051;-68
2024/02/16 04:06:40;;;;;;;17.73;12.27;;;11.30;99.90;;;;;;5097887;28;20032;-68
2024/02/16 04:09:26;;;;;;;17.45;12.25;;;11.30;99.90;;;;;;5100789;28;20380;-68
2024/02/16 04:12:12;;;;;;;18.42;11.95;;;11.30;99.90;;;;;;5091894;28;20048;-69
2024/02/16 04:14:58;;;;;;;15.55;11.57;;;11.30;99.90;;;;;;5096714;28;20381;-69
2024/02/16 04:17:44;;;;;;;16.65;11.25;;;11.30;99.90;;;;;;5084009;28;20046;-69
2024/02/16 04:20:30;;;;;;;13.75;10.98;;;11.20;99.90;;;;;;5089347;28;20040;-69
2024/02/16 04:23:16;;;;;;;14.98;11.48;;;11.20;99.90;;;;;;5099629;28;20457;-68
2024/02/16 04:26:02;;;;;;;13.77;10.73;;;11.20;99.90;;;;;;5093130;28;20369;-67
2024/02/16 04:28:48;;;;;;;17.55;11.50;;;11.20;99.90;;;;;;5100951;28;20040;-67
2024/02/16 04:31:34;;;;;;;14.93;10.90;;;11.30;99.90;;;;;;5102197;28;20047;-67
2024/02/16 04:34:20;;;;;;;16.38;11.85;;;11.20;99.90;;;;;;5090875;28;20131;-67
2024/02/16 04:37:05;;;;;;;15.55;12.02;;;11.30;99.90;;;;;;5105263;28;20059;-67
2024/02/16 04:39:52;;;;;;;20.48;11.52;;;11.30;99.90;;;;;;5096008;28;20130;-67
2024/02/16 04:42:40;;;;;;;13.32;9.98;;;11.20;99.90;;;;;;5096667;28;20040;-68
2024/02/16 04:45:27;;;;;;;14.40;10.68;;;11.30;99.90;;;;;;5095097;28;20363;-69
2024/02/16 04:48:13;;;;;;;15.48;11.20;;;11.30;99.90;;;;;;5098827;28;20479;-67
2024/02/16 04:50:58;;;;;;;13.38;9.98;;;11.30;99.90;;;;;;5101977;28;20047;-68
2024/02/16 04:53:44;;;;;;;15.07;11.38;;;11.30;99.90;;;;;;5097633;28;20102;-63
2024/02/16 04:56:30;;;;;;;14.05;11.05;;;11.30;99.90;;;;;;5094688;28;20472;-63
2024/02/16 04:59:17;;;;;;;13.95;10.10;;;11.30;99.90;;;;;;5098606;28;20075;-62
2024/02/16 05:02:03;;;;;;;17.30;11.70;;;11.30;99.90;;;;;;5091098;28;20044;-64
2024/02/16 05:04:49;;;;;;;18.52;10.93;;;11.30;99.90;;;;;;5080613;28;20036;-63
2024/02/16 05:07:36;;;;;;;15.80;10.80;;;11.30;99.90;;;;;;5105328;28;20448;-64
2024/02/16 05:10:22;;;;;;;17.02;11.25;;;11.30;99.90;;;;;;5104695;28;20434;-64
2024/02/16 05:13:08;;;;;;;15.85;11.48;;;11.30;99.90;;;;;;5090925;28;20044;-64
2024/02/16 05:15:54;;;;;;;14.40;9.45;;;11.30;99.90;;;;;;5092482;28;20165;-64
2024/02/16 05:18:40;;;;;;;12.18;9.85;;;11.30;99.90;;;;;;5092370;28;20044;-64
2024/02/16 05:21:26;;;;;;;13.27;9.82;;;11.30;99.90;;;;;;5099947;28;20522;-64
2024/02/16 05:24:12;;;;;;;14.55;10.75;;;11.30;99.90;;;;;;5106105;28;20044;-63
2024/02/16 05:26:58;;;;;;;16.45;9.95;;;11.30;99.90;;;;;;5098513;28;20359;-64
2024/02/16 05:29:45;;;;;;;13.68;9.13;;;11.30;99.90;;;;;;5084707;28;20043;-63
2024/02/16 05:32:31;;;;;;;13.98;10.00;;;11.30;99.90;;;;;;5092358;28;20472;-64
2024/02/16 05:35:17;;;;;;;15.70;9.98;;;11.30;99.90;;;;;;5104917;28;21214;-64
2024/02/16 05:38:07;;;;;;;13.32;10.23;;;11.20;99.90;;;;;;5103318;28;20193;-64
2024/02/16 05:40:53;;;;;;;13.73;9.50;;;11.20;99.90;;;;;;5096141;28;20435;-64
2024/02/16 05:43:42;;;;;;;13.02;9.45;;;11.20;99.90;;;;;;5101243;28;20040;-63
2024/02/16 05:46:28;;;;;;;13.13;9.15;;;11.30;99.90;;;;;;5110736;28;20061;-64
2024/02/16 05:49:16;;;;;;;14.80;9.18;;;11.20;99.90;;;;;;5096760;28;20043;-64
2024/02/16 05:52:17;;;;;;;14.32;9.15;;;11.20;99.90;;;;;;5097934;28;20040;-64
2024/02/16 05:55:04;;;;;;;12.95;8.68;;;11.20;99.90;;;;;;5097287;28;20047;-64
2024/02/16 05:57:50;;;;;;;14.40;9.55;;;11.20;99.90;;;;;;5097532;28;20385;-64
2024/02/16 06:00:36;;;;;;;12.13;9.05;;;11.20;99.90;;;;;;5099879;28;20040;-64
2024/02/16 06:03:22;;;;;;;12.43;8.88;;;11.20;99.90;;;;;;5099561;28;20476;-63
2024/02/16 06:06:08;;;;;;;13.05;9.07;;;11.20;99.90;;;;;;5077240;28;20094;-64
2024/02/16 06:08:53;;;;;;;13.35;9.23;;;11.10;99.90;;;;;;5104087;28;20059;-63
2024/02/16 06:11:39;;;;;;;11.38;8.85;;;11.10;99.90;;;;;;5103018;28;20498;-64
2024/02/16 06:14:25;;;;;;;13.05;9.35;;;11.10;99.90;;;;;;5097159;28;20560;-64
2024/02/16 06:17:14;;;;;;;11.15;8.38;;;11.10;99.90;;;;;;5099187;28;20513;-63
2024/02/16 06:20:00;;;;;;;13.13;9.52;;;11.10;99.90;;;;;;5089409;28;20036;-65
2024/02/16 06:22:46;;;;;;;13.48;9.73;;;11.10;99.90;;;;;;5093142;28;20046;-63
2024/02/16 06:25:32;;;;;;;16.73;10.55;;;11.00;99.90;;;;;;5098854;28;20067;-62
2024/02/16 06:28:18;;;;;;;13.07;9.38;;;11.00;99.90;;;;;;5098559;28;20055;-63
2024/02/16 06:31:04;;;;;;;15.98;8.23;;;11.00;99.90;;;;;;5094365;28;20036;-63
2024/02/16 06:33:50;;;;;;;13.85;9.55;;;11.00;99.90;;;;;;5093945;28;20056;-63
2024/02/16 06:36:36;;;;;;;12.43;9.27;;;11.00;99.90;;;;;;5100843;28;20055;-63
2024/02/16 06:39:22;;;;;;;16.05;10.07;;;11.00;99.90;;;;;;5106405;28;20043;-63
2024/02/16 06:42:08;;;;;;;13.30;8.95;;;11.00;99.90;;;;;;5099299;28;20469;-63
2024/02/16 06:44:54;;;;;;;14.52;9.95;;;11.00;99.90;;;;;;5098822;28;20396;-63
2024/02/16 06:47:40;;;;;;;13.88;9.40;;;11.00;99.90;;;;;;5088059;28;20472;-63
2024/02/16 06:50:26;;;;;;;12.07;8.60;;;11.00;99.90;;;;;;5100166;28;20040;-63
2024/02/16 06:53:11;;;;;;;12.88;9.55;;;11.00;99.90;;;;;;5092048;28;20251;-63
2024/02/16 06:55:58;;;;;;;13.93;9.50;;;11.00;99.90;;;;;;5096161;28;20044;-63
2024/02/16 06:58:45;;;;;;;14.00;10.05;;;11.00;99.90;;;;;;5092634;28;20800;-63
2024/02/16 07:01:31;;;;;;;16.02;10.05;;;11.00;99.90;;;;;;5091492;28;20106;-62
2024/02/16 07:04:17;;;;;;;15.40;9.48;;;11.00;99.90;;;;;;5091572;28;20047;-63
2024/02/16 07:07:06;;;;;;;15.45;10.13;;;11.00;99.90;;;;;;5091976;28;20040;-63
2024/02/16 07:09:52;;;;;;;15.18;10.68;;;11.00;99.90;;;;;;5096922;28;20044;-63
2024/02/16 07:12:38;;;;;;;14.20;10.20;;;11.00;99.90;;;;;;5093355;28;20048;-63
2024/02/16 07:15:26;;;;;;;14.27;10.15;;;11.00;99.90;;;;;;5099142;28;20040;-63
2024/02/16 07:18:12;;;;;;;16.75;10.98;;;11.00;99.90;;;;;;5091508;27;20475;-63
2024/02/16 07:20:59;;;;;;;13.98;10.43;;;11.00;99.90;;;;;;5106454;27;20118;-63
2024/02/16 07:23:45;;;;;;;12.90;9.52;;;11.00;99.90;;;;;;5089414;28;20051;-63
2024/02/16 07:26:31;;;;;;;14.57;9.60;;;11.10;99.90;;;;;;5091478;28;20136;-63
2024/02/16 07:29:17;;;;;;;14.88;10.15;;;11.10;99.90;;;;;;5103974;28;20128;-63
2024/02/16 07:32:03;;;;;;;13.75;8.90;;;11.10;99.90;;;;;;5096408;28;20096;-63
2024/02/16 07:34:49;;;;;;;14.38;10.52;;;11.10;99.90;;;;;;5092617;28;20123;-63
2024/02/16 07:37:35;;;;;;;14.85;10.23;;;11.20;99.90;;;;;;5095853;27;20036;-63
2024/02/16 07:40:22;;;;;;;14.20;9.77;;;11.20;99.90;;;;;;5094456;28;20476;-63
2024/02/16 07:43:08;;;;;;;13.23;9.85;;;11.20;99.90;;;;;;5109835;28;20043;-63
2024/02/16 07:45:54;;;;;;;13.93;9.80;;;11.30;99.90;;;;;;5104454;28;20484;-63
2024/02/16 07:48:40;;;;;;;13.45;10.10;;;11.40;99.90;;;;;;5096970;28;20032;-64
2024/02/16 07:51:26;;;;;;;16.85;9.63;;;11.40;99.90;;;;;;5105230;28;20071;-67
2024/02/16 07:54:14;;;;;;;14.88;10.05;;;11.50;99.90;;;;;;5092072;28;20051;-65
2024/02/16 07:56:59;;;;;;;15.90;10.10;;;11.60;99.90;;;;;;5097618;28;20089;-65
2024/02/16 07:59:45;;;;;;;13.52;9.43;;;11.60;99.90;;;;;;5094031;28;20032;-65
2024/02/16 08:02:31;;;;;;;14.55;10.52;;;11.80;99.90;;;;;;5105798;28;20407;-64
2024/02/16 08:05:19;;;;;;;14.73;9.13;;;11.80;99.90;;;;;;5104292;28;20047;-65
2024/02/16 08:08:05;;;;;;;14.90;9.23;;;11.90;99.90;;;;;;5075130;28;20516;-65
2024/02/16 08:10:51;;;;;;;14.77;9.50;;;12.00;99.90;;;;;;5102186;28;20124;-65
2024/02/16 08:13:37;;;;;;;15.27;10.07;;;12.10;99.90;;;;;;5093127;28;20181;-64
2024/02/16 08:16:23;;;;;;;16.08;9.65;;;12.10;99.90;;;;;;5094533;28;20040;-64
2024/02/16 08:19:09;;;;;;;23.15;10.38;;;12.20;99.90;;;;;;5098827;28;20105;-65
2024/02/16 08:21:55;;;;;;;12.55;8.43;;;12.30;99.90;;;;;;5091043;28;20032;-65
2024/02/16 08:24:41;;;;;;;13.25;9.35;;;12.40;99.90;;;;;;5096293;28;20079;-65
2024/02/16 08:27:26;;;;;;;12.52;9.27;;;12.40;99.90;;;;;;5091801;28;20033;-65
2024/02/16 08:30:12;;;;;;;14.55;9.27;;;12.50;99.90;;;;;;5094907;28;20040;-64
2024/02/16 08:33:00;;;;;;;12.32;8.73;;;12.50;99.90;;;;;;5092157;28;20452;-65
2024/02/16 08:35:46;;;;;;;12.75;9.02;;;12.60;99.90;;;;;;5095970;28;20048;-65
2024/02/16 08:38:32;;;;;;;12.25;9.75;;;12.60;99.90;;;;;;5092060;28;20097;-65
2024/02/16 08:41:18;;;;;;;11.02;8.48;;;12.60;99.90;;;;;;5091280;28;20032;-64
2024/02/16 08:44:07;;;;;;;14.05;8.15;;;12.70;99.90;;;;;;5096552;28;20101;-64
2024/02/16 08:46:54;;;;;;;11.25;8.13;;;12.80;99.90;;;;;;5093714;28;20036;-66
2024/02/16 08:49:42;;;;;;;13.48;8.50;;;12.80;99.90;;;;;;5100350;28;20035;-65
2024/02/16 08:52:28;;;;;;;11.38;7.97;;;12.80;99.90;;;;;;5102150;28;20392;-64
2024/02/16 08:55:14;;;;;;;14.30;9.13;;;12.80;99.90;;;;;;5096874;28;20028;-64
2024/02/16 08:58:00;;;;;;;12.23;7.45;;;12.90;99.90;;;;;;5099713;28;20133;-64
2024/02/16 09:00:46;;;;;;;10.95;7.95;;;12.90;99.90;;;;;;5097057;28;20036;-64
2024/02/16 09:03:36;;;;;;;12.00;8.23;;;12.90;99.90;;;;;;5097743;28;20040;-64
2024/02/16 09:06:22;;;;;;;11.43;8.82;;;13.00;99.90;;;;;;5096520;28;20488;-64
2024/02/16 09:09:08;;;;;;;11.77;8.68;;;13.00;99.90;;;;;;5092506;28;20044;-65
2024/02/16 09:11:54;;;;;;;11.65;8.35;;;13.10;99.90;;;;;;5098051;28;20040;-65
2024/02/16 09:14:40;;;;;;;10.68;7.65;;;13.10;99.90;;;;;;5093463;28;20565;-65
2024/02/16 09:17:26;;;;;;;11.23;7.30;;;13.20;99.90;;;;;;5105674;28;20036;-65
2024/02/16 09:20:12;;;;;;;11.20;8.32;;;13.30;99.90;;;;;;5093973;28;20567;-65
2024/02/16 09:22:58;;;;;;;11.23;8.30;;;13.30;99.90;;;;;;5099568;28;20484;-65
2024/02/16 09:25:46;;;;;;;10.10;7.53;;;13.30;99.90;;;;;;5101603;28;20411;-65
2024/02/16 09:28:32;;;;;;;12.85;8.20;;;13.40;99.90;;;;;;5095693;28;20392;-65
2024/02/16 09:31:18;;;;;;;13.73;8.77;;;13.50;99.90;;;;;;5098819;28;20047;-65
2024/02/16 09:34:03;;;;;;;10.60;8.05;;;13.50;99.90;;;;;;5107107;28;20048;-66
2024/02/16 09:36:49;;;;;;;11.82;7.65;;;13.60;99.90;;;;;;5097811;28;20039;-65
2024/02/16 09:39:35;;;;;;;9.30;7.07;;;13.70;99.90;;;;;;5099870;28;20038;-65
2024/02/16 09:42:25;;;;;;;10.32;6.70;;;13.80;99.90;;;;;;5096599;28;20043;-65
2024/02/16 09:45:15;;;;;;;11.52;7.90;;;13.90;99.90;;;;;;5098024;28;20039;-65
2024/02/16 09:48:07;;;;;;;8.20;6.25;;;14.00;99.90;;;;;;5097441;28;20419;-65
2024/02/16 09:50:56;;;;;;;11.77;6.25;;;14.10;99.90;;;;;;5095502;28;20047;-65
2024/02/16 09:53:42;;;;;;;8.82;5.57;;;14.20;99.90;;;;;;5099786;28;20088;-65
2024/02/16 09:56:28;;;;;;;9.32;6.15;;;14.30;99.90;;;;;;5082422;28;20084;-65
2024/02/16 09:59:14;;;;;;;8.60;5.25;;;14.40;99.90;;;;;;5098141;28;20040;-65
2024/02/16 10:02:07;;;;;;;7.45;5.45;;;14.40;99.90;;;;;;5092906;28;20081;-64
2024/02/16 10:04:54;;;;;;;7.63;4.93;;;14.50;99.90;;;;;;5102387;28;20046;-64
2024/02/16 10:07:40;;;;;;;7.68;5.47;;;14.60;99.90;;;;;;5099256;28;20110;-64
2024/02/16 10:10:32;;;;;;;7.95;4.82;;;14.60;99.90;;;;;;5092517;28;20051;-64
2024/02/16 10:13:18;;;;;;;13.75;5.05;;;14.70;99.90;;;;;;5098800;28;20084;-64
2024/02/16 10:16:12;;;;;;;8.13;5.28;;;14.80;99.90;;;;;;5103735;28;20040;-65
2024/02/16 10:19:06;;;;;;;5.93;4.43;;;14.90;99.90;;;;;;5086449;28;20040;-63
2024/02/16 10:21:52;;;;;;;7.40;4.40;;;14.90;99.90;;;;;;5095886;28;20042;-64
2024/02/16 10:24:38;;;;;;;7.72;4.47;;;15.00;99.90;;;;;;5098586;28;20043;-63
2024/02/16 10:27:24;;;;;;;7.68;4.10;;;15.00;99.90;;;;;;5097558;28;20040;-63
2024/02/16 10:30:12;;;;;;;5.75;4.13;;;15.10;99.90;;;;;;5093925;28;20043;-64
2024/02/16 10:32:59;;;;;;;6.40;4.05;;;15.10;99.90;;;;;;5093080;28;20119;-64
2024/02/16 10:35:46;;;;;;;6.65;4.53;;;15.20;99.90;;;;;;5098091;28;20036;-64
2024/02/16 10:38:33;;;;;;;7.00;4.47;;;15.20;99.90;;;;;;5093951;28;20055;-63
2024/02/16 10:41:20;;;;;;;7.55;4.18;;;15.20;99.90;;;;;;5099948;28;20403;-64
2024/02/16 10:44:07;;;;;;;6.03;4.13;;;15.30;99.90;;;;;;5079204;28;20131;-64
2024/02/16 10:46:56;;;;;;;6.95;4.25;;;15.30;99.90;;;;;;5099855;28;20411;-63
2024/02/16 10:49:42;;;;;;;9.55;4.32;;;15.30;99.90;;;;;;5095031;28;20461;-63
2024/02/16 10:52:29;;;;;;;6.80;3.95;;;15.30;99.90;;;;;;5091729;28;20043;-64
2024/02/16 10:55:15;;;;;;;5.43;3.80;;;15.30;99.90;;;;;;5090333;28;20051;-64
2024/02/16 10:58:01;;;;;;;5.53;4.05;;;15.40;99.90;;;;;;5103664;28;20040;-63
2024/02/16 11:00:57;;;;;;;7.57;4.45;;;15.40;99.90;;;;;;5095105;28;20040;-64
2024/02/16 11:03:43;;;;;;;5.65;3.88;;;15.40;99.90;;;;;;5104063;28;20048;-64
2024/02/16 11:06:29;;;;;;;12.25;4.30;;;15.40;99.90;;;;;;5089093;28;20057;-64
2024/02/16 11:09:34;;;;;;;6.03;3.53;;;15.40;99.90;;;;;;5105932;28;20047;-63
2024/02/16 11:12:21;;;;;;;5.05;3.50;;;15.40;99.90;;;;;;5091069;28;20540;-63
2024/02/16 11:15:08;;;;;;;6.05;3.83;;;15.50;99.90;;;;;;5093341;28;20097;-63
2024/02/16 11:17:58;;;;;;;5.93;4.13;;;15.50;99.90;;;;;;5094268;28;20048;-63
2024/02/16 11:20:44;;;;;;;6.50;3.55;;;15.60;99.90;;;;;;5081699;28;20038;-63
2024/02/16 11:23:31;;;;;;;7.55;3.55;;;15.60;99.90;;;;;;5090660;28;20047;-64
2024/02/16 11:26:17;;;;;;;6.13;3.78;;;15.70;99.90;;;;;;5090665;28;20055;-63
2024/02/16 11:29:03;;;;;;;5.43;4.20;;;15.70;99.90;;;;;;5093880;28;20071;-63
2024/02/16 11:31:50;;;;;;;6.22;3.88;;;15.80;99.90;;;;;;5106085;28;20101;-64
2024/02/16 11:34:37;;;;;;;6.80;4.03;;;15.80;99.90;;;;;;5103022;28;20095;-64
2024/02/16 11:37:23;;;;;;;5.72;3.50;;;15.90;99.90;;;;;;5095172;28;20093;-63
2024/02/16 11:40:12;;;;;;;6.43;3.70;;;15.90;99.90;;;;;;5096078;28;20052;-62
2024/02/16 11:42:59;;;;;;;5.60;4.00;;;15.90;99.90;;;;;;5096759;28;20039;-63
2024/02/16 11:45:45;;;;;;;6.15;4.15;;;15.90;99.90;;;;;;5098215;28;20446;-63
2024/02/16 11:48:31;;;;;;;5.72;3.72;;;15.90;99.90;;;;;;5101381;28;20040;-63
2024/02/16 11:51:17;;;;;;;7.47;4.40;;;16.00;99.90;;;;;;5089725;28;20048;-63
2024/02/16 11:54:03;;;;;;;5.00;3.60;;;16.10;99.90;;;;;;5096982;28;20407;-63
2024/02/16 11:56:52;;;;;;;8.43;4.45;;;16.20;99.90;;;;;;5099583;28;20032;-62
2024/02/16 11:59:39;;;;;;;6.18;3.58;;;16.20;99.90;;;;;;5094504;28;20047;-63
2024/02/16 12:02:25;;;;;;;4.95;3.70;;;16.30;99.90;;;;;;5101212;28;20038;-63
2024/02/16 12:05:15;;;;;;;5.80;2.90;;;16.40;99.90;;;;;;5098097;28;20406;-63
2024/02/16 12:08:01;;;;;;;8.27;3.70;;;16.50;99.90;;;;;;5089370;28;20031;-63
2024/02/16 12:10:48;;;;;;;6.05;3.20;;;16.70;99.90;;;;;;5091042;28;20044;-63
2024/02/16 12:13:34;;;;;;;5.05;2.85;;;16.70;99.90;;;;;;5095684;28;20059;-63
2024/02/16 12:16:20;;;;;;;8.05;3.53;;;16.90;99.90;;;;;;5080218;28;20047;-64
2024/02/16 12:19:07;;;;;;;7.25;3.90;;;17.00;99.90;;;;;;5082842;28;20396;-64
2024/02/16 12:21:57;;;;;;;5.22;3.20;;;17.00;99.80;;;;;;5090351;28;20051;-64
2024/02/16 12:24:44;;;;;;;7.10;2.88;;;17.10;99.50;;;;;;5090411;28;20042;-64
2024/02/16 12:27:30;;;;;;;14.18;3.83;;;17.10;99.20;;;;;;5093630;28;20044;-64
2024/02/16 12:30:16;;;;;;;4.60;3.25;;;17.10;99.10;;;;;;5091210;28;20134;-63
2024/02/16 12:33:03;;;;;;;7.32;3.70;;;17.10;98.90;;;;;;5104980;27;20142;-64
2024/02/16 12:35:49;;;;;;;6.80;3.15;;;17.10;98.90;;;;;;5094505;28;20189;-63
2024/02/16 12:38:34;;;;;;;4.70;3.08;;;17.10;98.90;;;;;;5099471;28;20068;-64
2024/02/16 12:41:21;;;;;;;3.67;2.50;;;17.20;98.90;;;;;;5093381;28;20089;-64
2024/02/16 12:44:07;;;;;;;7.25;3.25;;;17.20;98.90;;;;;;5092050;28;21325;-64
2024/02/16 12:46:53;;;;;;;4.55;2.78;;;17.30;98.80;;;;;;5097190;28;20044;-67
2024/02/16 12:49:39;;;;;;;4.80;3.10;;;17.30;98.70;;;;;;5092930;28;20385;-69
2024/02/16 12:52:25;;;;;;;4.63;2.95;;;17.30;98.60;;;;;;5095615;28;20078;-69
2024/02/16 12:55:11;;;;;;;8.80;3.08;;;17.40;98.60;;;;;;5092451;28;20162;-71
2024/02/16 12:57:57;;;;;;;7.28;3.38;;;17.40;98.60;;;;;;5094364;28;20044;-70
2024/02/16 13:00:43;;;;;;;5.20;3.17;;;17.30;98.50;;;;;;5093022;28;20043;-69
2024/02/16 13:03:28;;;;;;;5.20;3.35;;;17.40;98.30;;;;;;5093246;27;20032;-69
2024/02/16 13:06:14;;;;;;;5.25;3.05;;;17.40;98.40;;;;;;5095821;28;20043;-69
2024/02/16 13:09:02;;;;;;;5.53;3.13;;;17.40;98.40;;;;;;5095503;28;20051;-68
2024/02/16 13:11:54;;;;;;;6.07;2.92;;;17.40;98.30;;;;;;5081641;28;20048;-68
2024/02/16 13:14:39;;;;;;;4.15;2.70;;;17.50;98.30;;;;;;5096243;27;20641;-68
2024/02/16 13:17:26;;;;;;;4.60;2.80;;;17.50;98.20;;;;;;5095285;28;20487;-68
2024/02/16 13:20:12;;;;;;;7.28;2.90;;;17.60;98.20;;;;;;5094793;28;20047;-68
2024/02/16 13:22:58;;;;;;;5.18;3.15;;;17.60;98.20;;;;;;5094489;28;20442;-68
2024/02/16 13:25:44;;;;;;;3.60;2.40;;;17.60;98.30;;;;;;5098754;28;20043;-68
2024/02/16 13:28:30;;;;;;;3.97;2.60;;;17.60;98.20;;;;;;5101980;28;20127;-68
2024/02/16 13:31:16;;;;;;;5.13;2.53;;;17.70;98.10;;;;;;5098495;28;20557;-68
2024/02/16 13:34:02;;;;;;;4.78;2.45;;;17.70;97.90;;;;;;5103145;28;20052;-68
2024/02/16 13:36:48;;;;;;;8.10;2.85;;;17.70;97.80;;;;;;5100262;27;20042;-68
2024/02/16 13:39:34;;;;;;;3.65;2.25;;;17.70;97.80;;;;;;5095212;28;20431;-68
2024/02/16 13:42:20;;;;;;;5.40;2.28;;;17.80;97.80;;;;;;5092917;28;20380;-68
2024/02/16 13:45:07;;;;;;;4.63;2.20;;;17.80;97.80;;;;;;5092318;28;20036;-68
2024/02/16 13:47:53;;;;;;;3.90;2.33;;;17.80;97.70;;;;;;5092489;28;20298;-68
2024/02/16 13:50:38;;;;;;;6.55;2.58;;;17.70;97.60;;;;;;5094515;27;20058;-68
2024/02/16 13:53:24;;;;;;;5.53;2.20;;;17.80;97.60;;;;;;5092347;28;20048;-68
2024/02/16 13:56:10;;;;;;;3.70;2.03;;;17.70;97.50;;;;;;5088899;28;20040;-69
2024/02/16 13:58:56;;;;;;;5.28;2.78;;;17.70;97.50;;;;;;5090813;28;20040;-68
2024/02/16 14:01:43;;;;;;;3.22;2.17;;;17.70;97.40;;;;;;5101238;28;20118;-68
2024/02/16 14:04:29;;;;;;;3.95;2.35;;;17.60;97.30;;;;;;5102521;27;20039;-68
2024/02/16 14:07:15;;;;;;;4.45;2.20;;;17.60;97.30;;;;;;5105234;28;20043;-69
2024/02/16 14:10:01;;;;;;;3.90;2.13;;;17.60;97.30;;;;;;5095272;28;20057;-68
2024/02/16 14:12:47;;;;;;;4.20;2.13;;;17.60;97.30;;;;;;5099662;28;20052;-68
2024/02/16 14:15:33;;;;;;;4.00;2.20;;;17.60;97.30;;;;;;5104018;28;20048;-68
2024/02/16 14:18:19;;;;;;;4.28;2.35;;;17.60;97.30;;;;;;5092091;28;20443;-68